sensor_id;sensor_type;location;lat;lon;timestamp;temperature;humidity
3976;DHT22;2002;48.812;9.180;2023-03-21T00:00:56;16.80;1.00
3976;DHT22;2002;48.812;9.180;2023-03-21T00:03:22;16.80;1.00
3976;DHT22;2002;48.812;9.180;2023-03-21T00:05:48;16.80;1.00
3976;DHT22;2002;48.812;9.180;2023-03-21T00:08:18;16.80;1.00
3976;DHT22;2002;48.812;9.180;2023-03-21T00:10:44;16.70;1.00
3976;DHT22;2002;48.812;9.180;2023-03-21T00:13:14;16.70;1.00
3976;DHT22;2002;48.812;9.180;2023-03-21T00:15:41;16.60;1.00
3976;DHT22;2002;48.812;9.180;2023-03-21T00:18:21;16.60;1.00
3976;DHT22;2002;48.812;9.180;2023-03-21T00:21:00;16.50;1.00
3976;DHT22;2002;48.812;9.180;2023-03-21T00:23:27;16.50;1.00
3976;DHT22;2002;48.812;9.180;2023-03-21T00:25:53;16.50;1.00
3976;DHT22;2002;48.812;9.180;2023-03-21T00:28:19;16.40;1.00
3976;DHT22;2002;48.812;9.180;2023-03-21T00:30:45;16.40;1.00
3976;DHT22;2002;48.812;9.180;2023-03-21T00:33:10;16.40;1.00
3976;DHT22;2002;48.812;9.180;2023-03-21T00:35:37;16.40;1.00
3976;DHT22;2002;48.812;9.180;2023-03-21T00:38:03;16.40;1.00
3976;DHT22;2002;48.812;9.180;2023-03-21T00:40:30;16.40;1.00
3976;DHT22;2002;48.812;9.180;2023-03-21T00:42:55;16.40;1.00
3976;DHT22;2002;48.812;9.180;2023-03-21T00:45:21;16.30;1.00
3976;DHT22;2002;48.812;9.180;2023-03-21T00:47:47;16.30;1.00
3976;DHT22;2002;48.812;9.180;2023-03-21T00:50:12;16.30;1.00
3976;DHT22;2002;48.812;9.180;2023-03-21T00:52:38;16.30;1.00
3976;DHT22;2002;48.812;9.180;2023-03-21T00:55:04;16.30;1.00
3976;DHT22;2002;48.812;9.180;2023-03-21T00:57:30;16.30;1.00
3976;DHT22;2002;48.812;9.180;2023-03-21T00:59:56;16.30;1.00
3976;DHT22;2002;48.812;9.180;2023-03-21T01:02:26;16.40;1.00
3976;DHT22;2002;48.812;9.180;2023-03-21T01:04:52;16.30;1.00
3976;DHT22;2002;48.812;9.180;2023-03-21T01:07:18;16.30;1.00
3976;DHT22;2002;48.812;9.180;2023-03-21T01:09:44;16.30;1.00
3976;DHT22;2002;48.812;9.180;2023-03-21T01:12:10;16.30;1.00
3976;DHT22;2002;48.812;9.180;2023-03-21T01:14:35;16.30;1.00
3976;DHT22;2002;48.812;9.180;2023-03-21T01:17:01;16.30;1.00
3976;DHT22;2002;48.812;9.180;2023-03-21T01:19:27;16.30;1.00
3976;DHT22;2002;48.812;9.180;2023-03-21T01:21:54;16.30;1.00
3976;DHT22;2002;48.812;9.180;2023-03-21T01:24:20;16.40;1.00
3976;DHT22;2002;48.812;9.180;2023-03-21T01:26:45;16.30;1.00
3976;DHT22;2002;48.812;9.180;2023-03-21T01:29:11;16.30;1.00
3976;DHT22;2002;48.812;9.180;2023-03-21T01:31:36;16.50;1.00
3976;DHT22;2002;48.812;9.180;2023-03-21T01:34:02;16.50;1.00
3976;DHT22;2002;48.812;9.180;2023-03-21T01:36:28;16.70;1.00
3976;DHT22;2002;48.812;9.180;2023-03-21T01:38:53;16.80;1.00
3976;DHT22;2002;48.812;9.180;2023-03-21T01:41:31;16.90;1.00
3976;DHT22;2002;48.812;9.180;2023-03-21T01:43:57;16.90;1.00
3976;DHT22;2002;48.812;9.180;2023-03-21T01:46:44;16.80;1.00
3976;DHT22;2002;48.812;9.180;2023-03-21T01:49:16;16.80;1.00
3976;DHT22;2002;48.812;9.180;2023-03-21T01:51:49;16.70;1.00
3976;DHT22;2002;48.812;9.180;2023-03-21T01:54:23;16.70;1.00
3976;DHT22;2002;48.812;9.180;2023-03-21T01:56:51;16.70;1.00
3976;DHT22;2002;48.812;9.180;2023-03-21T01:59:39;16.60;1.00
3976;DHT22;2002;48.812;9.180;2023-03-21T02:02:06;16.60;1.00
3976;DHT22;2002;48.812;9.180;2023-03-21T02:04:36;16.50;1.00
3976;DHT22;2002;48.812;9.180;2023-03-21T02:07:11;16.50;1.00
3976;DHT22;2002;48.812;9.180;2023-03-21T02:09:38;16.40;1.00
3976;DHT22;2002;48.812;9.180;2023-03-21T02:12:06;16.40;1.00
3976;DHT22;2002;48.812;9.180;2023-03-21T02:14:35;16.40;1.00
3976;DHT22;2002;48.812;9.180;2023-03-21T02:19:45;16.40;1.00
3976;DHT22;2002;48.812;9.180;2023-03-21T02:22:43;16.40;1.00
3976;DHT22;2002;48.812;9.180;2023-03-21T02:28:27;16.30;1.00
3976;DHT22;2002;48.812;9.180;2023-03-21T02:31:22;16.30;1.00
3976;DHT22;2002;48.812;9.180;2023-03-21T02:34:23;16.30;1.00
3976;DHT22;2002;48.812;9.180;2023-03-21T02:37:00;16.30;1.00
3976;DHT22;2002;48.812;9.180;2023-03-21T02:45:18;16.30;1.00
3976;DHT22;2002;48.812;9.180;2023-03-21T02:47:50;16.30;1.00
3976;DHT22;2002;48.812;9.180;2023-03-21T02:52:56;16.30;1.00
3976;DHT22;2002;48.812;9.180;2023-03-21T02:55:28;16.30;1.00
3976;DHT22;2002;48.812;9.180;2023-03-21T02:57:56;16.30;1.00
3976;DHT22;2002;48.812;9.180;2023-03-21T03:00:25;16.30;1.00
3976;DHT22;2002;48.812;9.180;2023-03-21T03:02:52;16.30;1.00
3976;DHT22;2002;48.812;9.180;2023-03-21T03:05:22;16.30;1.00
3976;DHT22;2002;48.812;9.180;2023-03-21T03:08:03;16.40;1.00
3976;DHT22;2002;48.812;9.180;2023-03-21T03:18:47;16.80;1.00
3976;DHT22;2002;48.812;9.180;2023-03-21T03:29:13;16.80;1.00
3976;DHT22;2002;48.812;9.180;2023-03-21T03:31:48;16.70;1.00
3976;DHT22;2002;48.812;9.180;2023-03-21T03:34:18;16.70;1.00
3976;DHT22;2002;48.812;9.180;2023-03-21T03:36:47;16.60;1.00
3976;DHT22;2002;48.812;9.180;2023-03-21T03:42:21;16.60;1.00
3976;DHT22;2002;48.812;9.180;2023-03-21T03:44:48;16.50;1.00
3976;DHT22;2002;48.812;9.180;2023-03-21T03:47:33;16.40;1.00
3976;DHT22;2002;48.812;9.180;2023-03-21T03:50:11;16.40;1.00
3976;DHT22;2002;48.812;9.180;2023-03-21T03:52:41;16.40;1.00
3976;DHT22;2002;48.812;9.180;2023-03-21T03:55:12;16.40;1.00
3976;DHT22;2002;48.812;9.180;2023-03-21T03:57:39;16.40;1.00
3976;DHT22;2002;48.812;9.180;2023-03-21T04:00:05;16.40;1.00
3976;DHT22;2002;48.812;9.180;2023-03-21T04:02:37;16.30;1.00
3976;DHT22;2002;48.812;9.180;2023-03-21T04:05:04;16.30;1.00
3976;DHT22;2002;48.812;9.180;2023-03-21T04:07:29;16.30;1.00
3976;DHT22;2002;48.812;9.180;2023-03-21T04:09:55;16.30;1.00
3976;DHT22;2002;48.812;9.180;2023-03-21T04:12:21;16.30;1.00
3976;DHT22;2002;48.812;9.180;2023-03-21T04:14:47;16.40;1.00
3976;DHT22;2002;48.812;9.180;2023-03-21T04:17:13;16.30;1.00
3976;DHT22;2002;48.812;9.180;2023-03-21T04:19:39;16.30;1.00
3976;DHT22;2002;48.812;9.180;2023-03-21T04:22:04;16.30;1.00
3976;DHT22;2002;48.812;9.180;2023-03-21T04:24:30;16.40;1.00
3976;DHT22;2002;48.812;9.180;2023-03-21T04:26:58;16.30;1.00
3976;DHT22;2002;48.812;9.180;2023-03-21T04:29:24;16.30;1.00
3976;DHT22;2002;48.812;9.180;2023-03-21T04:31:50;16.30;1.00
3976;DHT22;2002;48.812;9.180;2023-03-21T04:34:15;16.40;1.00
3976;DHT22;2002;48.812;9.180;2023-03-21T04:36:41;16.30;1.00
3976;DHT22;2002;48.812;9.180;2023-03-21T04:39:13;16.30;1.00
3976;DHT22;2002;48.812;9.180;2023-03-21T04:41:40;16.30;1.00
3976;DHT22;2002;48.812;9.180;2023-03-21T04:44:06;16.30;1.00
3976;DHT22;2002;48.812;9.180;2023-03-21T04:46:33;16.30;1.00
3976;DHT22;2002;48.812;9.180;2023-03-21T04:48:59;16.30;1.00
3976;DHT22;2002;48.812;9.180;2023-03-21T04:51:25;16.30;1.00
3976;DHT22;2002;48.812;9.180;2023-03-21T04:53:50;16.50;1.00
3976;DHT22;2002;48.812;9.180;2023-03-21T04:56:17;16.60;1.00
3976;DHT22;2002;48.812;9.180;2023-03-21T04:58:44;16.80;1.00
3976;DHT22;2002;48.812;9.180;2023-03-21T05:01:09;16.80;1.00
3976;DHT22;2002;48.812;9.180;2023-03-21T05:03:38;16.80;1.00
3976;DHT22;2002;48.812;9.180;2023-03-21T05:06:07;16.80;1.00
3976;DHT22;2002;48.812;9.180;2023-03-21T05:08:34;16.80;1.00
3976;DHT22;2002;48.812;9.180;2023-03-21T05:11:00;16.70;1.00
3976;DHT22;2002;48.812;9.180;2023-03-21T05:13:25;16.70;1.00
3976;DHT22;2002;48.812;9.180;2023-03-21T05:15:51;16.70;1.00
3976;DHT22;2002;48.812;9.180;2023-03-21T05:18:17;16.60;1.00
3976;DHT22;2002;48.812;9.180;2023-03-21T05:20:50;16.60;1.00
3976;DHT22;2002;48.812;9.180;2023-03-21T05:23:22;16.60;1.00
3976;DHT22;2002;48.812;9.180;2023-03-21T05:25:48;16.60;1.00
3976;DHT22;2002;48.812;9.180;2023-03-21T05:28:14;16.50;1.00
3976;DHT22;2002;48.812;9.180;2023-03-21T05:30:43;16.50;1.00
3976;DHT22;2002;48.812;9.180;2023-03-21T05:33:10;16.50;1.00
3976;DHT22;2002;48.812;9.180;2023-03-21T05:35:36;16.50;1.00
3976;DHT22;2002;48.812;9.180;2023-03-21T05:38:01;16.50;1.00
3976;DHT22;2002;48.812;9.180;2023-03-21T05:40:27;16.50;1.00
3976;DHT22;2002;48.812;9.180;2023-03-21T05:42:52;16.50;1.00
3976;DHT22;2002;48.812;9.180;2023-03-21T05:45:18;16.50;1.00
3976;DHT22;2002;48.812;9.180;2023-03-21T05:47:44;16.50;1.00
3976;DHT22;2002;48.812;9.180;2023-03-21T05:50:10;16.50;1.00
3976;DHT22;2002;48.812;9.180;2023-03-21T05:52:36;16.50;1.00
3976;DHT22;2002;48.812;9.180;2023-03-21T05:55:02;16.50;1.00
3976;DHT22;2002;48.812;9.180;2023-03-21T05:57:27;16.50;1.00
3976;DHT22;2002;48.812;9.180;2023-03-21T05:59:53;16.60;1.00
3976;DHT22;2002;48.812;9.180;2023-03-21T06:02:19;16.60;1.00
3976;DHT22;2002;48.812;9.180;2023-03-21T06:04:45;16.50;1.00
3976;DHT22;2002;48.812;9.180;2023-03-21T06:07:10;16.50;1.00
3976;DHT22;2002;48.812;9.180;2023-03-21T06:09:36;16.60;1.00
3976;DHT22;2002;48.812;9.180;2023-03-21T06:12:03;16.50;1.00
3976;DHT22;2002;48.812;9.180;2023-03-21T06:14:28;16.50;1.00
3976;DHT22;2002;48.812;9.180;2023-03-21T06:16:54;16.50;1.00
3976;DHT22;2002;48.812;9.180;2023-03-21T06:19:20;16.50;1.00
3976;DHT22;2002;48.812;9.180;2023-03-21T06:21:46;16.50;1.00
3976;DHT22;2002;48.812;9.180;2023-03-21T06:24:12;16.50;1.00
3976;DHT22;2002;48.812;9.180;2023-03-21T06:26:38;16.50;1.00
3976;DHT22;2002;48.812;9.180;2023-03-21T06:29:04;16.50;1.00
3976;DHT22;2002;48.812;9.180;2023-03-21T06:31:29;16.50;1.00
3976;DHT22;2002;48.812;9.180;2023-03-21T06:33:55;16.60;1.00
3976;DHT22;2002;48.812;9.180;2023-03-21T06:36:21;16.60;1.00
3976;DHT22;2002;48.812;9.180;2023-03-21T06:38:46;16.70;1.00
3976;DHT22;2002;48.812;9.180;2023-03-21T06:41:13;16.60;1.00
3976;DHT22;2002;48.812;9.180;2023-03-21T06:43:39;16.60;1.00
3976;DHT22;2002;48.812;9.180;2023-03-21T06:46:05;16.60;1.00
3976;DHT22;2002;48.812;9.180;2023-03-21T06:48:31;16.60;1.00
3976;DHT22;2002;48.812;9.180;2023-03-21T06:50:57;16.60;1.00
3976;DHT22;2002;48.812;9.180;2023-03-21T06:53:24;16.50;1.00
3976;DHT22;2002;48.812;9.180;2023-03-21T06:55:52;16.60;1.00
3976;DHT22;2002;48.812;9.180;2023-03-21T06:58:19;16.60;1.00
3976;DHT22;2002;48.812;9.180;2023-03-21T07:00:45;16.50;1.00
3976;DHT22;2002;48.812;9.180;2023-03-21T07:03:11;16.50;1.00
3976;DHT22;2002;48.812;9.180;2023-03-21T07:05:38;16.60;1.00
3976;DHT22;2002;48.812;9.180;2023-03-21T07:08:08;16.50;1.00
3976;DHT22;2002;48.812;9.180;2023-03-21T07:10:40;16.50;1.00
3976;DHT22;2002;48.812;9.180;2023-03-21T07:13:06;16.50;1.00
3976;DHT22;2002;48.812;9.180;2023-03-21T07:15:32;16.50;1.00
3976;DHT22;2002;48.812;9.180;2023-03-21T07:18:04;16.60;1.00
3976;DHT22;2002;48.812;9.180;2023-03-21T07:20:30;16.50;1.00
3976;DHT22;2002;48.812;9.180;2023-03-21T07:22:57;16.50;1.00
3976;DHT22;2002;48.812;9.180;2023-03-21T07:25:22;16.50;1.00
3976;DHT22;2002;48.812;9.180;2023-03-21T07:27:48;16.50;1.00
3976;DHT22;2002;48.812;9.180;2023-03-21T07:30:15;16.50;1.00
3976;DHT22;2002;48.812;9.180;2023-03-21T07:32:41;16.50;1.00
3976;DHT22;2002;48.812;9.180;2023-03-21T07:35:11;16.50;1.00
3976;DHT22;2002;48.812;9.180;2023-03-21T07:37:38;16.50;1.00
3976;DHT22;2002;48.812;9.180;2023-03-21T07:40:05;16.50;1.00
3976;DHT22;2002;48.812;9.180;2023-03-21T07:42:38;16.50;1.00
3976;DHT22;2002;48.812;9.180;2023-03-21T07:45:04;16.50;1.00
3976;DHT22;2002;48.812;9.180;2023-03-21T07:47:30;16.50;1.00
3976;DHT22;2002;48.812;9.180;2023-03-21T07:49:56;16.50;1.00
3976;DHT22;2002;48.812;9.180;2023-03-21T07:52:22;16.50;1.00
3976;DHT22;2002;48.812;9.180;2023-03-21T07:54:47;16.50;1.00
3976;DHT22;2002;48.812;9.180;2023-03-21T07:57:13;16.50;1.00
3976;DHT22;2002;48.812;9.180;2023-03-21T07:59:38;16.50;1.00
3976;DHT22;2002;48.812;9.180;2023-03-21T08:02:04;16.50;1.00
3976;DHT22;2002;48.812;9.180;2023-03-21T08:04:30;16.40;1.00
3976;DHT22;2002;48.812;9.180;2023-03-21T08:06:56;16.50;1.00
3976;DHT22;2002;48.812;9.180;2023-03-21T08:09:22;16.40;1.00
3976;DHT22;2002;48.812;9.180;2023-03-21T08:11:47;16.40;1.00
3976;DHT22;2002;48.812;9.180;2023-03-21T08:14:13;16.50;1.00
3976;DHT22;2002;48.812;9.180;2023-03-21T08:16:39;16.50;1.00
3976;DHT22;2002;48.812;9.180;2023-03-21T08:19:04;16.60;1.00
3976;DHT22;2002;48.812;9.180;2023-03-21T08:21:30;16.80;1.00
3976;DHT22;2002;48.812;9.180;2023-03-21T08:23:55;16.80;1.00
3976;DHT22;2002;48.812;9.180;2023-03-21T08:26:21;16.80;1.00
3976;DHT22;2002;48.812;9.180;2023-03-21T08:28:49;16.80;1.00
3976;DHT22;2002;48.812;9.180;2023-03-21T08:31:15;16.80;1.00
3976;DHT22;2002;48.812;9.180;2023-03-21T08:33:42;16.70;1.00
3976;DHT22;2002;48.812;9.180;2023-03-21T08:36:08;16.70;1.00
3976;DHT22;2002;48.812;9.180;2023-03-21T08:38:34;16.70;1.00
3976;DHT22;2002;48.812;9.180;2023-03-21T08:41:00;16.70;1.00
3976;DHT22;2002;48.812;9.180;2023-03-21T08:43:26;16.60;1.00
3976;DHT22;2002;48.812;9.180;2023-03-21T08:45:52;16.60;1.00
3976;DHT22;2002;48.812;9.180;2023-03-21T08:48:18;16.70;1.00
3976;DHT22;2002;48.812;9.180;2023-03-21T08:50:44;16.70;1.00
3976;DHT22;2002;48.812;9.180;2023-03-21T08:53:10;16.80;1.00
3976;DHT22;2002;48.812;9.180;2023-03-21T08:55:35;16.70;1.00
3976;DHT22;2002;48.812;9.180;2023-03-21T08:58:02;16.70;1.00
3976;DHT22;2002;48.812;9.180;2023-03-21T09:00:28;16.60;1.00
3976;DHT22;2002;48.812;9.180;2023-03-21T09:02:54;16.60;1.00
3976;DHT22;2002;48.812;9.180;2023-03-21T09:05:21;16.50;1.00
3976;DHT22;2002;48.812;9.180;2023-03-21T09:07:47;16.60;1.00
3976;DHT22;2002;48.812;9.180;2023-03-21T09:10:18;16.50;1.00
3976;DHT22;2002;48.812;9.180;2023-03-21T09:12:44;16.50;1.00
3976;DHT22;2002;48.812;9.180;2023-03-21T09:15:10;16.60;1.00
3976;DHT22;2002;48.812;9.180;2023-03-21T09:17:37;16.50;1.00
3976;DHT22;2002;48.812;9.180;2023-03-21T09:20:08;16.50;1.00
3976;DHT22;2002;48.812;9.180;2023-03-21T09:22:37;16.50;1.00
3976;DHT22;2002;48.812;9.180;2023-03-21T09:25:03;16.60;1.00
3976;DHT22;2002;48.812;9.180;2023-03-21T09:27:35;16.50;1.00
3976;DHT22;2002;48.812;9.180;2023-03-21T09:30:01;16.50;1.00
3976;DHT22;2002;48.812;9.180;2023-03-21T09:32:27;16.50;1.00
3976;DHT22;2002;48.812;9.180;2023-03-21T09:34:54;16.50;1.00
3976;DHT22;2002;48.812;9.180;2023-03-21T09:37:20;16.50;1.00
3976;DHT22;2002;48.812;9.180;2023-03-21T09:39:46;16.40;1.00
3976;DHT22;2002;48.812;9.180;2023-03-21T09:47:32;16.40;1.00
3976;DHT22;2002;48.812;9.180;2023-03-21T09:50:27;16.40;1.00
3976;DHT22;2002;48.812;9.180;2023-03-21T09:53:10;16.40;1.00
3976;DHT22;2002;48.812;9.180;2023-03-21T09:55:39;16.40;1.00
3976;DHT22;2002;48.812;9.180;2023-03-21T09:58:27;16.40;1.00
3976;DHT22;2002;48.812;9.180;2023-03-21T10:01:15;16.40;1.00
3976;DHT22;2002;48.812;9.180;2023-03-21T10:03:53;16.40;1.00
3976;DHT22;2002;48.812;9.180;2023-03-21T10:06:20;16.40;1.00
3976;DHT22;2002;48.812;9.180;2023-03-21T10:08:56;16.50;1.00
3976;DHT22;2002;48.812;9.180;2023-03-21T10:11:30;16.70;1.00
3976;DHT22;2002;48.812;9.180;2023-03-21T10:14:06;16.80;1.00
3976;DHT22;2002;48.812;9.180;2023-03-21T10:16:41;16.90;1.00
3976;DHT22;2002;48.812;9.180;2023-03-21T10:19:13;16.90;1.00
3976;DHT22;2002;48.812;9.180;2023-03-21T10:21:41;16.80;1.00
3976;DHT22;2002;48.812;9.180;2023-03-21T10:24:15;16.80;1.00
3976;DHT22;2002;48.812;9.180;2023-03-21T10:26:42;16.70;1.00
3976;DHT22;2002;48.812;9.180;2023-03-21T10:29:09;16.70;1.00
3976;DHT22;2002;48.812;9.180;2023-03-21T10:31:36;16.70;1.00
3976;DHT22;2002;48.812;9.180;2023-03-21T10:34:06;16.60;1.00
3976;DHT22;2002;48.812;9.180;2023-03-21T10:36:34;16.70;1.00
3976;DHT22;2002;48.812;9.180;2023-03-21T10:39:06;16.60;1.00
3976;DHT22;2002;48.812;9.180;2023-03-21T10:41:33;16.50;1.00
3976;DHT22;2002;48.812;9.180;2023-03-21T10:44:14;16.50;1.00
3976;DHT22;2002;48.812;9.180;2023-03-21T10:47:05;16.50;1.00
3976;DHT22;2002;48.812;9.180;2023-03-21T10:49:32;16.50;1.00
3976;DHT22;2002;48.812;9.180;2023-03-21T10:52:02;16.50;1.00
3976;DHT22;2002;48.812;9.180;2023-03-21T10:54:30;16.50;1.00
3976;DHT22;2002;48.812;9.180;2023-03-21T10:57:05;16.50;1.00
3976;DHT22;2002;48.812;9.180;2023-03-21T10:59:53;16.50;1.00
3976;DHT22;2002;48.812;9.180;2023-03-21T11:04:53;16.40;1.00
3976;DHT22;2002;48.812;9.180;2023-03-21T11:07:20;16.50;1.00
3976;DHT22;2002;48.812;9.180;2023-03-21T11:09:59;16.40;1.00
3976;DHT22;2002;48.812;9.180;2023-03-21T11:12:37;16.40;1.00
3976;DHT22;2002;48.812;9.180;2023-03-21T11:15:29;16.40;1.00
3976;DHT22;2002;48.812;9.180;2023-03-21T11:18:01;16.40;1.00
3976;DHT22;2002;48.812;9.180;2023-03-21T11:20:43;16.40;1.00
3976;DHT22;2002;48.812;9.180;2023-03-21T11:23:12;16.40;1.00
3976;DHT22;2002;48.812;9.180;2023-03-21T11:25:40;16.40;1.00
3976;DHT22;2002;48.812;9.180;2023-03-21T11:28:15;16.40;1.00
3976;DHT22;2002;48.812;9.180;2023-03-21T11:30:55;16.40;1.00
3976;DHT22;2002;48.812;9.180;2023-03-21T11:33:25;16.40;1.00
3976;DHT22;2002;48.812;9.180;2023-03-21T11:36:02;16.40;1.00
3976;DHT22;2002;48.812;9.180;2023-03-21T11:38:31;16.40;1.00
3976;DHT22;2002;48.812;9.180;2023-03-21T11:40:59;16.40;1.00
3976;DHT22;2002;48.812;9.180;2023-03-21T11:43:35;16.40;1.00
3976;DHT22;2002;48.812;9.180;2023-03-21T11:56:38;16.30;1.00
3976;DHT22;2002;48.812;9.180;2023-03-21T12:05:26;16.40;1.00
3976;DHT22;2002;48.812;9.180;2023-03-21T12:08:09;16.30;1.00
3976;DHT22;2002;48.812;9.180;2023-03-21T12:10:49;16.30;1.00
3976;DHT22;2002;48.812;9.180;2023-03-21T12:13:38;16.30;1.00
3976;DHT22;2002;48.812;9.180;2023-03-21T12:19:31;16.30;1.00
3976;DHT22;2002;48.812;9.180;2023-03-21T12:22:09;16.40;1.00
3976;DHT22;2002;48.812;9.180;2023-03-21T12:41:21;16.30;1.00
3976;DHT22;2002;48.812;9.180;2023-03-21T12:44:03;16.30;1.00
3976;DHT22;2002;48.812;9.180;2023-03-21T12:46:49;16.30;1.00
3976;DHT22;2002;48.812;9.180;2023-03-21T12:51:50;16.30;1.00
3976;DHT22;2002;48.812;9.180;2023-03-21T12:57:01;16.40;1.00
3976;DHT22;2002;48.812;9.180;2023-03-21T12:59:43;16.40;1.00
3976;DHT22;2002;48.812;9.180;2023-03-21T13:02:16;16.40;1.00
3976;DHT22;2002;48.812;9.180;2023-03-21T13:04:51;16.50;1.00
3976;DHT22;2002;48.812;9.180;2023-03-21T13:07:20;16.40;1.00
3976;DHT22;2002;48.812;9.180;2023-03-21T13:09:47;16.40;1.00
3976;DHT22;2002;48.812;9.180;2023-03-21T13:20:57;16.30;1.00
3976;DHT22;2002;48.812;9.180;2023-03-21T13:23:33;16.30;1.00
3976;DHT22;2002;48.812;9.180;2023-03-21T13:25:59;16.30;1.00
3976;DHT22;2002;48.812;9.180;2023-03-21T13:28:34;16.30;1.00
3976;DHT22;2002;48.812;9.180;2023-03-21T13:31:21;16.30;1.00
3976;DHT22;2002;48.812;9.180;2023-03-21T13:33:51;16.30;1.00
3976;DHT22;2002;48.812;9.180;2023-03-21T13:36:25;16.30;1.00
3976;DHT22;2002;48.812;9.180;2023-03-21T13:38:57;16.20;1.00
3976;DHT22;2002;48.812;9.180;2023-03-21T13:41:30;16.20;1.00
3976;DHT22;2002;48.812;9.180;2023-03-21T13:51:42;16.20;1.00
3976;DHT22;2002;48.812;9.180;2023-03-21T13:59:10;16.20;1.00
3976;DHT22;2002;48.812;9.180;2023-03-21T14:01:40;16.20;1.00
3976;DHT22;2002;48.812;9.180;2023-03-21T14:06:46;16.20;1.00
3976;DHT22;2002;48.812;9.180;2023-03-21T14:09:19;16.20;1.00
3976;DHT22;2002;48.812;9.180;2023-03-21T14:11:46;16.20;1.00
3976;DHT22;2002;48.812;9.180;2023-03-21T14:14:13;16.20;1.00
3976;DHT22;2002;48.812;9.180;2023-03-21T14:16:40;16.20;1.00
3976;DHT22;2002;48.812;9.180;2023-03-21T14:19:06;16.20;1.00
3976;DHT22;2002;48.812;9.180;2023-03-21T14:21:34;16.20;1.00
3976;DHT22;2002;48.812;9.180;2023-03-21T14:26:29;16.30;1.00
3976;DHT22;2002;48.812;9.180;2023-03-21T14:28:56;16.20;1.00
3976;DHT22;2002;48.812;9.180;2023-03-21T14:31:22;16.20;1.00
3976;DHT22;2002;48.812;9.180;2023-03-21T14:33:54;16.20;1.00
3976;DHT22;2002;48.812;9.180;2023-03-21T14:36:39;16.20;1.00
3976;DHT22;2002;48.812;9.180;2023-03-21T14:39:20;16.20;1.00
3976;DHT22;2002;48.812;9.180;2023-03-21T14:41:51;16.20;1.00
3976;DHT22;2002;48.812;9.180;2023-03-21T14:44:23;16.20;1.00
3976;DHT22;2002;48.812;9.180;2023-03-21T14:47:06;16.20;1.00
3976;DHT22;2002;48.812;9.180;2023-03-21T14:49:36;16.20;1.00
3976;DHT22;2002;48.812;9.180;2023-03-21T14:52:04;16.20;1.00
3976;DHT22;2002;48.812;9.180;2023-03-21T14:54:32;16.20;1.00
3976;DHT22;2002;48.812;9.180;2023-03-21T14:57:03;16.20;1.00
3976;DHT22;2002;48.812;9.180;2023-03-21T14:59:33;16.20;1.00
3976;DHT22;2002;48.812;9.180;2023-03-21T15:02:02;16.20;1.00
3976;DHT22;2002;48.812;9.180;2023-03-21T15:04:29;16.20;1.00
3976;DHT22;2002;48.812;9.180;2023-03-21T15:06:58;16.20;1.00
3976;DHT22;2002;48.812;9.180;2023-03-21T15:09:31;16.30;1.00
3976;DHT22;2002;48.812;9.180;2023-03-21T15:11:58;16.20;1.00
3976;DHT22;2002;48.812;9.180;2023-03-21T15:14:30;16.20;1.00
3976;DHT22;2002;48.812;9.180;2023-03-21T15:16:58;16.20;1.00
3976;DHT22;2002;48.812;9.180;2023-03-21T15:19:31;16.20;1.00
3976;DHT22;2002;48.812;9.180;2023-03-21T15:22:04;16.20;1.00
3976;DHT22;2002;48.812;9.180;2023-03-21T15:24:35;16.20;1.00
3976;DHT22;2002;48.812;9.180;2023-03-21T15:27:07;16.20;1.00
3976;DHT22;2002;48.812;9.180;2023-03-21T15:29:36;16.20;1.00
3976;DHT22;2002;48.812;9.180;2023-03-21T15:32:05;16.20;1.00
3976;DHT22;2002;48.812;9.180;2023-03-21T15:34:31;16.20;1.00
3976;DHT22;2002;48.812;9.180;2023-03-21T15:37:00;16.20;1.00
3976;DHT22;2002;48.812;9.180;2023-03-21T15:39:29;16.20;1.00
3976;DHT22;2002;48.812;9.180;2023-03-21T15:42:01;16.20;1.00
3976;DHT22;2002;48.812;9.180;2023-03-21T15:44:28;16.20;1.00
3976;DHT22;2002;48.812;9.180;2023-03-21T15:46:54;16.20;1.00
3976;DHT22;2002;48.812;9.180;2023-03-21T15:52:00;16.20;1.00
3976;DHT22;2002;48.812;9.180;2023-03-21T15:54:31;16.20;1.00
3976;DHT22;2002;48.812;9.180;2023-03-21T15:57:03;16.20;1.00
3976;DHT22;2002;48.812;9.180;2023-03-21T15:59:35;16.40;1.00
3976;DHT22;2002;48.812;9.180;2023-03-21T16:02:03;16.50;1.00
3976;DHT22;2002;48.812;9.180;2023-03-21T16:04:30;16.70;1.00
3976;DHT22;2002;48.812;9.180;2023-03-21T16:07:01;16.80;1.00
3976;DHT22;2002;48.812;9.180;2023-03-21T16:09:36;16.90;1.00
3976;DHT22;2002;48.812;9.180;2023-03-21T16:12:02;17.20;1.00
3976;DHT22;2002;48.812;9.180;2023-03-21T16:14:30;17.50;1.00
3976;DHT22;2002;48.812;9.180;2023-03-21T16:16:56;17.70;1.00
3976;DHT22;2002;48.812;9.180;2023-03-21T16:19:23;17.80;1.00
3976;DHT22;2002;48.812;9.180;2023-03-21T16:21:49;17.80;1.00
3976;DHT22;2002;48.812;9.180;2023-03-21T16:24:15;17.80;1.00
3976;DHT22;2002;48.812;9.180;2023-03-21T16:26:46;17.70;1.00
3976;DHT22;2002;48.812;9.180;2023-03-21T16:29:13;17.60;1.00
3976;DHT22;2002;48.812;9.180;2023-03-21T16:31:40;17.50;1.00
3976;DHT22;2002;48.812;9.180;2023-03-21T16:34:12;17.50;1.00
3976;DHT22;2002;48.812;9.180;2023-03-21T16:36:39;17.40;1.00
3976;DHT22;2002;48.812;9.180;2023-03-21T16:39:20;17.30;1.00
3976;DHT22;2002;48.812;9.180;2023-03-21T16:41:47;17.30;1.00
3976;DHT22;2002;48.812;9.180;2023-03-21T16:44:13;17.20;1.00
3976;DHT22;2002;48.812;9.180;2023-03-21T16:46:38;17.20;1.00
3976;DHT22;2002;48.812;9.180;2023-03-21T16:49:04;17.10;1.00
3976;DHT22;2002;48.812;9.180;2023-03-21T16:51:39;17.00;1.00
3976;DHT22;2002;48.812;9.180;2023-03-21T16:54:04;17.00;1.00
3976;DHT22;2002;48.812;9.180;2023-03-21T16:56:43;16.90;1.00
3976;DHT22;2002;48.812;9.180;2023-03-21T16:59:11;16.90;1.00
3976;DHT22;2002;48.812;9.180;2023-03-21T17:01:37;16.80;1.00
3976;DHT22;2002;48.812;9.180;2023-03-21T17:04:04;16.80;1.00
3976;DHT22;2002;48.812;9.180;2023-03-21T17:06:29;16.70;1.00
3976;DHT22;2002;48.812;9.180;2023-03-21T17:08:56;16.70;1.00
3976;DHT22;2002;48.812;9.180;2023-03-21T17:11:24;16.70;1.00
3976;DHT22;2002;48.812;9.180;2023-03-21T17:13:53;16.70;1.00
3976;DHT22;2002;48.812;9.180;2023-03-21T17:16:22;16.60;1.00
3976;DHT22;2002;48.812;9.180;2023-03-21T17:18:48;16.50;1.00
3976;DHT22;2002;48.812;9.180;2023-03-21T17:21:23;16.50;1.00
3976;DHT22;2002;48.812;9.180;2023-03-21T17:23:49;16.50;1.00
3976;DHT22;2002;48.812;9.180;2023-03-21T17:26:25;16.50;1.00
3976;DHT22;2002;48.812;9.180;2023-03-21T17:28:52;16.50;1.00
3976;DHT22;2002;48.812;9.180;2023-03-21T17:31:20;16.50;1.00
3976;DHT22;2002;48.812;9.180;2023-03-21T17:33:46;16.40;1.00
3976;DHT22;2002;48.812;9.180;2023-03-21T17:36:17;16.40;1.00
3976;DHT22;2002;48.812;9.180;2023-03-21T17:38:44;16.40;1.00
3976;DHT22;2002;48.812;9.180;2023-03-21T17:41:12;16.40;1.00
3976;DHT22;2002;48.812;9.180;2023-03-21T17:43:38;16.40;1.00
3976;DHT22;2002;48.812;9.180;2023-03-21T17:46:04;16.40;1.00
3976;DHT22;2002;48.812;9.180;2023-03-21T17:48:29;16.40;1.00
3976;DHT22;2002;48.812;9.180;2023-03-21T17:50:55;16.40;1.00
3976;DHT22;2002;48.812;9.180;2023-03-21T17:53:21;16.40;1.00
3976;DHT22;2002;48.812;9.180;2023-03-21T17:55:46;16.30;1.00
3976;DHT22;2002;48.812;9.180;2023-03-21T17:58:12;16.40;1.00
3976;DHT22;2002;48.812;9.180;2023-03-21T18:00:38;16.30;1.00
3976;DHT22;2002;48.812;9.180;2023-03-21T18:03:03;16.30;1.00
3976;DHT22;2002;48.812;9.180;2023-03-21T18:05:29;16.30;1.00
3976;DHT22;2002;48.812;9.180;2023-03-21T18:07:55;16.30;1.00
3976;DHT22;2002;48.812;9.180;2023-03-21T18:10:25;16.30;1.00
3976;DHT22;2002;48.812;9.180;2023-03-21T18:12:51;16.30;1.00
3976;DHT22;2002;48.812;9.180;2023-03-21T18:15:21;16.40;1.00
3976;DHT22;2002;48.812;9.180;2023-03-21T18:17:47;16.60;1.00
3976;DHT22;2002;48.812;9.180;2023-03-21T18:20:16;16.70;1.00
3976;DHT22;2002;48.812;9.180;2023-03-21T18:22:43;16.90;1.00